Time;durP1;ratioP1;P1;durP2;ratioP2;P2;SDS_P1;SDS_P2;PMS_P1;PMS_P2;Temp;Humidity;BMP_temperature;BMP_pressure;BME280_temperature;BME280_humidity;BME280_pressure;Samples;Min_cycle;Max_cycle;Signal;HPM_P1;HPM_P2
2021/06/18 00:02:10;;;;;;;2.63;1.63;;;;;;;13.94;100.00;93415.47;5091140;28;20492;-83
2021/06/18 00:04:37;;;;;;;3.05;1.90;;;;;;;13.99;100.00;93413.78;5090818;28;20470;-83
2021/06/18 00:07:04;;;;;;;2.88;1.90;;;;;;;13.83;100.00;93384.25;5072419;28;20094;-83
2021/06/18 00:09:31;;;;;;;2.40;1.40;;;;;;;13.69;100.00;93354.50;5070871;28;20048;-83
2021/06/18 00:11:58;;;;;;;3.58;2.10;;;;;;;13.96;100.00;93403.09;5071021;28;20044;-83
2021/06/18 00:14:25;;;;;;;2.75;1.77;;;;;;;13.85;100.00;93400.31;5070728;28;20062;-83
2021/06/18 00:16:52;;;;;;;2.58;1.52;;;;;;;13.76;100.00;93397.28;5070727;28;20049;-82
2021/06/18 00:19:20;;;;;;;1.88;1.30;;;;;;;13.88;100.00;93423.09;5070756;28;20052;-82
2021/06/18 00:21:47;;;;;;;3.63;1.73;;;;;;;13.80;100.00;93414.91;5070779;28;21342;-82
2021/06/18 00:24:14;;;;;;;2.45;1.50;;;;;;;13.75;100.00;93415.59;5070909;28;21573;-82
2021/06/18 00:26:41;;;;;;;2.92;1.65;;;;;;;13.29;100.00;93354.13;5070563;28;20074;-82
2021/06/18 00:29:08;;;;;;;2.17;1.45;;;;;;;13.73;100.00;93417.59;5070420;28;20052;-82
2021/06/18 00:31:35;;;;;;;2.33;1.35;;;;;;;13.63;100.00;93398.31;5070676;28;20054;-83
2021/06/18 00:34:02;;;;;;;2.33;1.60;;;;;;;13.74;100.00;93412.22;5070098;28;20052;-83
2021/06/18 00:36:30;;;;;;;2.40;1.63;;;;;;;13.61;100.00;93396.94;5070457;28;20080;-83
2021/06/18 00:38:57;;;;;;;2.47;1.23;;;;;;;13.51;100.00;93383.81;5070536;28;20044;-83
2021/06/18 00:41:23;;;;;;;4.63;1.45;;;;;;;13.45;100.00;93370.75;5070589;28;20048;-83
2021/06/18 00:43:54;;;;;;;2.45;1.48;;;;;;;13.69;100.00;93401.78;5070200;28;20040;-83
2021/06/18 00:46:21;;;;;;;2.47;1.60;;;;;;;13.47;100.00;93368.00;5070291;28;20122;-83
2021/06/18 00:48:48;;;;;;;2.65;1.70;;;;;;;13.67;100.00;93393.47;5070410;28;20051;-83
2021/06/18 00:51:15;;;;;;;2.65;1.70;;;;;;;13.56;100.00;93392.44;5070338;28;20048;-83
2021/06/18 00:53:44;;;;;;;4.22;1.20;;;;;;;13.58;100.00;93405.94;5070248;28;20044;-83
2021/06/18 00:56:10;;;;;;;2.97;1.65;;;;;;;13.49;100.00;93399.50;5069938;28;20415;-83
2021/06/18 00:58:38;;;;;;;1.50;1.02;;;;;;;13.38;100.00;93410.56;5069864;28;20101;-83
2021/06/18 01:01:05;;;;;;;2.35;1.45;;;;;;;13.20;100.00;93389.78;5069803;28;20044;-84
2021/06/18 01:03:32;;;;;;;2.80;1.13;;;;;;;13.29;100.00;93405.72;5069789;28;20044;-83
2021/06/18 01:05:59;;;;;;;1.90;1.20;;;;;;;13.23;100.00;93393.72;5079186;28;20051;-83
2021/06/18 01:08:33;;;;;;;2.55;1.52;;;;;;;13.20;100.00;93389.00;5089985;28;20055;-83
2021/06/18 01:11:08;;;;;;;3.33;1.55;;;;;;;12.97;100.00;93362.16;5089517;28;20044;-83
2021/06/18 01:13:48;;;;;;;2.35;2.03;;;;;;;13.12;100.00;93379.78;5090052;28;20056;-83
2021/06/18 01:16:17;;;;;;;2.38;1.40;;;;;;;13.13;100.00;93383.13;5088860;28;20050;-83
2021/06/18 01:18:47;;;;;;;2.20;1.40;;;;;;;13.23;100.00;93399.66;5090119;28;20044;-82
2021/06/18 01:21:21;;;;;;;1.70;1.02;;;;;;;13.25;100.00;93403.81;5089968;28;20606;-83
2021/06/18 01:24:19;;;;;;;3.78;1.95;;;;;;;13.07;100.00;93384.81;5090081;28;20121;-83
2021/06/18 01:27:12;;;;;;;2.10;1.27;;;;;;;13.05;100.00;93379.88;5089638;28;20044;-82
2021/06/18 01:29:45;;;;;;;2.50;1.25;;;;;;;12.98;100.00;93375.81;5089406;28;20083;-84
2021/06/18 01:32:19;;;;;;;3.03;1.88;;;;;;;12.74;100.00;93335.31;5090003;28;20044;-84
2021/06/18 01:34:46;;;;;;;2.75;1.63;;;;;;;13.12;100.00;93400.44;5089719;28;20056;-82
2021/06/18 01:37:16;;;;;;;5.00;1.90;;;;;;;13.05;100.00;93392.78;5089608;28;20507;-82
2021/06/18 01:39:45;;;;;;;3.03;1.50;;;;;;;13.03;100.00;93402.53;5089787;28;20044;-82
2021/06/18 01:42:14;;;;;;;3.03;1.67;;;;;;;12.89;100.00;93386.47;5090118;28;20059;-82
2021/06/18 01:44:43;;;;;;;3.53;1.70;;;;;;;13.00;100.00;93397.81;5089215;28;20055;-82
2021/06/18 01:47:14;;;;;;;3.47;1.50;;;;;;;12.98;100.00;93397.25;5089392;28;20491;-81
2021/06/18 01:49:43;;;;;;;2.67;1.75;;;;;;;12.98;100.00;93406.75;5089525;28;20449;-81
2021/06/18 01:52:13;;;;;;;3.75;2.08;;;;;;;12.88;100.00;93404.72;5089625;28;20048;-81
2021/06/18 01:54:41;;;;;;;2.70;1.60;;;;;;;12.89;100.00;93409.66;5089310;28;20047;-81
2021/06/18 01:57:08;;;;;;;4.85;1.80;;;;;;;12.79;100.00;93411.97;5089572;28;20091;-81
2021/06/18 01:59:38;;;;;;;3.30;1.70;;;;;;;12.81;100.00;93410.75;5082889;28;20045;-81
2021/06/18 02:02:08;;;;;;;6.07;2.00;;;;;;;12.78;100.00;93405.25;5069106;28;20524;-84
2021/06/18 02:04:37;;;;;;;4.85;1.80;;;;;;;12.77;100.00;93406.25;5083367;28;20051;-85
2021/06/18 02:07:06;;;;;;;4.82;1.85;;;;;;;12.48;100.00;93365.56;5088711;28;20117;-86
2021/06/18 02:09:36;;;;;;;4.57;2.58;;;;;;;12.82;100.00;93414.91;5089472;28;20043;-85
2021/06/18 02:12:03;;;;;;;2.63;1.90;;;;;;;12.74;100.00;93394.59;5089350;28;20419;-85
2021/06/18 02:14:33;;;;;;;3.33;1.85;;;;;;;12.70;100.00;93404.53;5089352;28;20127;-85
2021/06/18 02:17:04;;;;;;;3.70;2.20;;;;;;;12.75;100.00;93406.47;5089269;28;20426;-86
2021/06/18 02:19:40;;;;;;;4.03;1.55;;;;;;;12.54;100.00;93379.34;5089191;28;20054;-85
2021/06/18 02:22:11;;;;;;;5.07;1.40;;;;;;;12.80;100.00;93410.97;5100315;28;20048;-86
2021/06/18 02:24:39;;;;;;;3.75;2.10;;;;;;;12.77;100.00;93407.03;5100760;28;20116;-86
2021/06/18 02:27:08;;;;;;;3.15;1.70;;;;;;;12.77;100.00;93409.59;5093280;28;20040;-85
2021/06/18 02:29:36;;;;;;;2.85;1.75;;;;;;;12.78;100.00;93416.31;5093560;28;20048;-86
2021/06/18 02:32:06;;;;;;;2.20;1.55;;;;;;;12.73;100.00;93412.84;5093249;28;20052;-82
2021/06/18 02:34:34;;;;;;;3.08;1.83;;;;;;;12.65;100.00;93406.19;5092955;28;20047;-82
2021/06/18 02:37:03;;;;;;;2.67;1.50;;;;;;;12.76;100.00;93420.13;5092931;28;20059;-83
2021/06/18 02:39:30;;;;;;;5.43;1.95;;;;;;;12.72;100.00;93424.16;5093068;28;20048;-82
2021/06/18 02:41:57;;;;;;;3.38;1.65;;;;;;;12.66;100.00;93418.06;5092886;28;20472;-82
2021/06/18 02:44:24;;;;;;;2.50;1.67;;;;;;;12.60;100.00;93414.59;5092754;28;20066;-82
2021/06/18 02:46:57;;;;;;;3.30;1.73;;;;;;;12.66;100.00;93418.06;5092926;28;20048;-81
2021/06/18 02:49:42;;;;;;;2.95;1.65;;;;;;;12.63;100.00;93423.69;5092947;28;20056;-82
2021/06/18 02:52:16;;;;;;;3.45;1.45;;;;;;;12.61;100.00;93416.16;5092934;28;20052;-83
2021/06/18 02:54:48;;;;;;;3.00;1.95;;;;;;;12.60;100.00;93417.16;5092914;28;20052;-84
2021/06/18 02:57:20;;;;;;;2.80;1.45;;;;;;;12.63;100.00;93418.53;5092717;28;20048;-83
2021/06/18 02:59:59;;;;;;;2.50;1.30;;;;;;;12.60;100.00;93413.78;5092687;28;20143;-85
2021/06/18 03:02:32;;;;;;;4.53;1.48;;;;;;;12.17;100.00;93354.41;5092692;28;20051;-82
2021/06/18 03:05:01;;;;;;;2.95;1.60;;;;;;;12.20;100.00;93360.94;5092240;28;20052;-87
2021/06/18 03:07:30;;;;;;;2.70;1.50;;;;;;;12.56;100.00;93410.88;5092185;28;20051;-87
2021/06/18 03:10:01;;;;;;;2.65;1.48;;;;;;;12.49;100.00;93410.16;5092071;28;20095;-83
2021/06/18 03:12:30;;;;;;;4.20;1.73;;;;;;;12.33;100.00;93381.41;5092442;28;20044;-83
2021/06/18 03:15:02;;;;;;;2.28;1.38;;;;;;;12.58;100.00;93403.69;5092387;28;20052;-84
2021/06/18 03:17:30;;;;;;;2.53;1.45;;;;;;;12.50;100.00;93386.72;5092357;28;20048;-83
2021/06/18 03:20:01;;;;;;;5.50;2.20;;;;;;;12.64;100.00;93414.94;5092233;28;20431;-83
2021/06/18 03:22:31;;;;;;;3.67;1.85;;;;;;;12.66;100.00;93415.50;5092333;28;20477;-83
2021/06/18 04:55:39;;;;;;;12.10;6.70;;;;;;;14.45;100.00;93439.03;5022754;28;20487;-81
2021/06/18 04:58:06;;;;;;;14.48;6.97;;;;;;;14.29;100.00;93438.69;5090429;28;20047;-82
2021/06/18 05:00:34;;;;;;;13.43;6.97;;;;;;;14.35;100.00;93446.56;5090109;28;20056;-82
2021/06/18 05:03:01;;;;;;;15.73;6.90;;;;;;;14.18;100.00;93424.00;5077322;28;20037;-82
2021/06/18 05:05:27;;;;;;;17.88;7.40;;;;;;;14.30;100.00;93431.72;5068302;28;20041;-81
2021/06/18 05:07:55;;;;;;;20.15;7.95;;;;;;;14.35;100.00;93434.41;5069431;28;20134;-82
2021/06/18 05:10:22;;;;;;;15.55;7.88;;;;;;;14.45;100.00;93453.72;5069918;28;20053;-82
2021/06/18 05:12:50;;;;;;;14.40;7.93;;;;;;;14.44;100.00;93445.19;5069582;28;20055;-82
2021/06/18 05:15:17;;;;;;;20.15;8.05;;;;;;;14.48;100.00;93442.94;5069432;28;20063;-81
2021/06/18 05:17:44;;;;;;;13.43;6.85;;;;;;;14.47;100.00;93434.41;5069434;28;20060;-81
2021/06/18 05:20:13;;;;;;;17.77;8.50;;;;;;;14.48;100.00;93441.13;5069725;28;20049;-82
2021/06/18 05:22:40;;;;;;;18.77;7.50;;;;;;;14.60;100.00;93445.50;5069548;28;20147;-81
2021/06/18 05:25:08;;;;;;;15.20;8.10;;;;;;;14.57;100.00;93436.38;5069668;28;20432;-83
2021/06/18 05:27:38;;;;;;;18.52;8.68;;;;;;;14.65;100.00;93445.59;5069928;28;20049;-84
2021/06/18 05:30:08;;;;;;;19.17;11.05;;;;;;;14.77;100.00;93448.19;5069509;28;20044;-82
2021/06/18 05:32:35;;;;;;;27.33;10.75;;;;;;;14.74;100.00;93448.59;5069896;28;20056;-83
2021/06/18 05:35:02;;;;;;;20.17;9.25;;;;;;;14.69;100.00;93447.47;5069637;28;20052;-83
2021/06/18 05:37:32;;;;;;;19.42;9.15;;;;;;;14.88;100.00;93438.81;5069596;28;20040;-83
2021/06/18 05:39:58;;;;;;;22.77;9.60;;;;;;;14.89;100.00;93423.06;5069162;28;20058;-83
2021/06/18 05:42:25;;;;;;;17.85;8.80;;;;;;;15.10;100.00;93441.53;5069482;28;20056;-83
2021/06/18 05:44:52;;;;;;;27.38;10.02;;;;;;;15.17;100.00;93439.59;5069485;28;20101;-83
2021/06/18 05:47:20;;;;;;;23.80;9.98;;;;;;;15.01;100.00;93435.16;5064894;28;20052;-83
2021/06/18 05:49:47;;;;;;;19.75;8.90;;;;;;;14.96;100.00;93439.22;5081485;28;20059;-82
2021/06/18 05:52:14;;;;;;;18.55;9.68;;;;;;;15.27;100.00;93436.38;5089223;28;20522;-83
2021/06/18 05:54:41;;;;;;;24.00;9.90;;;;;;;15.52;100.00;93442.22;5089219;28;20517;-83
2021/06/18 05:57:08;;;;;;;24.75;9.95;;;;;;;15.75;100.00;93449.84;5089475;28;20048;-83
2021/06/18 05:59:35;;;;;;;17.60;8.10;;;;;;;15.83;100.00;93437.53;5089467;28;20048;-82
2021/06/18 06:02:02;;;;;;;30.90;15.07;;;;;;;15.83;100.00;93440.13;5089024;28;20044;-83
2021/06/18 06:04:30;;;;;;;36.78;15.73;;;;;;;16.22;100.00;93447.97;5089138;28;20511;-83
2021/06/18 06:06:57;;;;;;;37.63;18.63;;;;;;;15.84;100.00;93447.63;5089513;28;20122;-81
2021/06/18 06:09:23;;;;;;;30.92;16.00;;;;;;;16.01;100.00;93452.84;5088938;28;20037;-82
2021/06/18 06:11:50;;;;;;;27.05;12.88;;;;;;;16.07;100.00;93447.75;5089092;28;20093;-81
2021/06/18 06:14:18;;;;;;;23.70;10.15;;;;;;;16.23;100.00;93441.75;5089022;28;20043;-81
2021/06/18 06:16:46;;;;;;;23.58;11.52;;;;;;;16.55;100.00;93435.13;5088915;28;20068;-81
2021/06/18 06:19:14;;;;;;;17.13;8.52;;;;;;;16.62;100.00;93445.34;5089894;28;20419;-81
2021/06/18 06:21:43;;;;;;;25.05;11.65;;;;;;;16.66;100.00;93442.03;5089359;28;20040;-82
2021/06/18 06:24:11;;;;;;;23.90;11.27;;;;;;;16.63;100.00;93433.94;5089259;28;20512;-82
2021/06/18 06:26:38;;;;;;;25.55;13.20;;;;;;;16.99;100.00;93442.09;5088786;28;20044;-82
2021/06/18 06:29:05;;;;;;;31.13;15.88;;;;;;;17.43;100.00;93443.06;5089197;28;20047;-82
2021/06/18 06:31:32;;;;;;;29.98;15.70;;;;;;;17.14;100.00;93431.16;5088936;28;20508;-82
2021/06/18 06:33:59;;;;;;;27.05;15.45;;;;;;;17.36;100.00;93441.47;5088663;28;20048;-82
2021/06/18 06:36:26;;;;;;;29.58;15.02;;;;;;;17.68;100.00;93434.72;5089014;28;20098;-82
2021/06/18 06:38:54;;;;;;;29.20;11.05;;;;;;;17.74;100.00;93440.75;5088722;28;20044;-82
2021/06/18 06:41:21;;;;;;;25.38;11.80;;;;;;;18.01;100.00;93432.88;5088554;28;20118;-82
2021/06/18 06:43:48;;;;;;;17.70;11.05;;;;;;;17.88;100.00;93441.88;5089109;28;20044;-82
2021/06/18 06:46:15;;;;;;;22.05;10.93;;;;;;;17.84;100.00;93433.03;5088791;28;20097;-81
2021/06/18 06:48:41;;;;;;;14.88;8.57;;;;;;;17.97;100.00;93429.19;5088960;28;20051;-81
2021/06/18 06:51:10;;;;;;;17.33;10.35;;;;;;;18.08;100.00;93435.28;5088845;28;20093;-81
2021/06/18 06:53:37;;;;;;;20.35;9.75;;;;;;;18.02;100.00;93418.81;5088645;28;20566;-81
2021/06/18 06:56:05;;;;;;;20.45;10.73;;;;;;;18.28;100.00;93421.63;5088897;28;20055;-81
2021/06/18 06:58:32;;;;;;;17.75;8.80;;;;;;;18.50;100.00;93420.69;5088693;28;20487;-81
2021/06/18 07:00:59;;;;;;;20.75;9.57;;;;;;;18.45;100.00;93415.44;5088457;28;20056;-81
2021/06/18 07:03:26;;;;;;;28.48;11.80;;;;;;;18.70;100.00;93416.56;5088726;28;20097;-81
2021/06/18 07:05:52;;;;;;;12.00;7.60;;;;;;;17.93;100.00;93414.34;5088475;28;20048;-81
2021/06/18 07:08:21;;;;;;;24.45;8.38;;;;;;;18.68;100.00;93411.66;5088667;28;20054;-81
2021/06/18 07:10:47;;;;;;;11.65;7.07;;;;;;;19.39;100.00;93405.31;5088772;28;20097;-80
2021/06/18 07:13:16;;;;;;;15.43;8.18;;;;;;;19.80;100.00;93410.50;5088763;28;20052;-81
2021/06/18 07:15:43;;;;;;;10.55;6.93;;;;;;;20.14;100.00;93398.75;5092262;28;20049;-80
2021/06/18 07:18:10;;;;;;;9.85;6.35;;;;;;;20.47;100.00;93407.00;5092168;28;20453;-81
2021/06/18 07:20:37;;;;;;;17.13;6.97;;;;;;;20.92;98.94;93396.66;5092189;28;20109;-80
2021/06/18 07:23:04;;;;;;;12.05;6.55;;;;;;;21.13;98.61;93396.53;5091969;28;20548;-80
2021/06/18 07:25:31;;;;;;;12.95;7.18;;;;;;;21.44;98.49;93395.53;5092112;28;20051;-80
2021/06/18 07:27:58;;;;;;;10.95;5.57;;;;;;;21.43;97.80;93391.38;5091938;28;20056;-80
2021/06/18 07:30:26;;;;;;;9.68;5.80;;;;;;;21.94;95.17;93377.09;5092131;28;20044;-81
2021/06/18 07:32:53;;;;;;;10.40;5.55;;;;;;;22.34;93.22;93384.00;5092109;28;20044;-81
2021/06/18 07:35:20;;;;;;;8.43;5.13;;;;;;;22.64;90.46;93382.13;5091807;28;20079;-81
2021/06/18 07:37:47;;;;;;;8.02;5.70;;;;;;;22.87;91.18;93377.88;5091605;28;20044;-81
2021/06/18 07:40:16;;;;;;;12.27;6.20;;;;;;;23.10;89.14;93367.66;5091982;28;20056;-81
2021/06/18 07:42:43;;;;;;;10.27;4.50;;;;;;;23.21;85.82;93363.81;5091905;28;20048;-80
2021/06/18 07:45:12;;;;;;;8.77;3.40;;;;;;;23.57;83.93;93373.00;5085991;28;20048;-81
2021/06/18 07:47:41;;;;;;;10.48;4.30;;;;;;;23.69;86.03;93364.66;5089836;28;20055;-80
2021/06/18 07:50:10;;;;;;;6.20;3.40;;;;;;;23.69;83.87;93361.28;5091641;28;20109;-80
2021/06/18 07:52:37;;;;;;;4.85;2.55;;;;;;;23.88;80.76;93367.22;5073421;28;20044;-81
2021/06/18 07:55:04;;;;;;;8.20;3.83;;;;;;;23.93;83.61;93355.09;5091124;28;20093;-80
2021/06/18 07:57:31;;;;;;;7.47;4.07;;;;;;;24.15;82.82;93355.22;5091462;28;20052;-81
2021/06/18 07:59:58;;;;;;;7.53;3.40;;;;;;;24.39;80.83;93358.72;5091227;28;20056;-81
2021/06/18 08:02:24;;;;;;;6.18;4.13;;;;;;;24.52;81.05;93344.78;5091653;28;20052;-81
2021/06/18 08:04:53;;;;;;;8.07;4.88;;;;;;;24.64;80.09;93346.94;5091637;28;20381;-81
2021/06/18 08:07:21;;;;;;;5.70;2.95;;;;;;;24.92;80.19;93351.34;5090965;28;20044;-82
2021/06/18 08:09:51;;;;;;;6.82;3.97;;;;;;;24.33;80.51;93355.41;5091393;28;20049;-82
2021/06/18 08:12:18;;;;;;;7.25;3.83;;;;;;;23.54;81.97;93359.66;5090879;28;20086;-81
2021/06/18 08:14:45;;;;;;;5.28;3.65;;;;;;;23.34;84.10;93346.59;5091144;28;20040;-81
2021/06/18 08:17:12;;;;;;;6.28;3.40;;;;;;;23.86;83.40;93351.00;5090887;28;20048;-80
2021/06/18 08:19:38;;;;;;;4.50;3.00;;;;;;;24.12;79.18;93361.03;5091112;28;20062;-81
2021/06/18 08:22:07;;;;;;;7.15;3.17;;;;;;;24.61;80.80;93344.88;5090980;28;20048;-80
2021/06/18 08:24:34;;;;;;;4.40;2.78;;;;;;;24.87;75.78;93349.63;5090301;28;20055;-81
2021/06/18 08:27:01;;;;;;;3.97;2.38;;;;;;;25.14;76.18;93355.88;5090673;28;20515;-81
2021/06/18 08:29:28;;;;;;;2.55;1.70;;;;;;;24.72;74.36;93345.47;5090597;28;20561;-81
2021/06/18 08:31:55;;;;;;;3.85;2.00;;;;;;;25.05;73.24;93358.41;5091343;28;20074;-81
2021/06/18 08:34:22;;;;;;;3.17;1.88;;;;;;;25.28;74.66;93352.41;5090868;28;20052;-81
2021/06/18 08:36:49;;;;;;;4.43;2.25;;;;;;;25.39;72.37;93348.47;5090826;28;20048;-81
2021/06/18 08:39:17;;;;;;;2.35;1.25;;;;;;;25.54;66.55;93342.06;5091341;28;20070;-80
2021/06/18 08:41:44;;;;;;;3.47;2.05;;;;;;;25.89;69.44;93346.75;5091155;28;20048;-81
2021/06/18 08:44:11;;;;;;;2.00;1.02;;;;;;;25.95;63.55;93321.06;5090989;28;20052;-81
2021/06/18 08:46:38;;;;;;;1.70;0.90;;;;;;;26.27;65.40;93338.41;5090921;28;20052;-81
2021/06/18 08:49:05;;;;;;;2.78;1.50;;;;;;;26.64;65.86;93335.53;5091159;28;20051;-81
2021/06/18 08:51:31;;;;;;;2.90;1.10;;;;;;;26.04;59.35;93327.13;5090857;28;20097;-81
2021/06/18 08:53:58;;;;;;;2.00;1.10;;;;;;;25.78;60.68;93332.31;5090633;28;20058;-80
2021/06/18 08:56:27;;;;;;;2.63;1.48;;;;;;;26.24;64.13;93311.91;5090914;28;20415;-80
2021/06/18 08:58:54;;;;;;;3.28;1.60;;;;;;;26.13;66.01;93320.06;5090904;28;20052;-80
2021/06/18 09:01:21;;;;;;;2.40;1.50;;;;;;;26.31;64.40;93325.41;5090809;28;20048;-80
2021/06/18 09:03:49;;;;;;;2.80;1.63;;;;;;;26.47;65.68;93331.00;5090342;28;20067;-80
2021/06/18 09:06:30;;;;;;;2.63;1.40;;;;;;;26.48;62.51;93326.53;5090193;28;20056;-81
2021/06/18 09:09:25;;;;;;;3.05;1.30;;;;;;;26.83;64.34;93316.00;5090934;28;20055;-80
2021/06/18 09:11:55;;;;;;;3.13;1.40;;;;;;;26.98;63.43;93314.78;5043582;28;20515;-81
2021/06/18 09:14:30;;;;;;;2.17;1.30;;;;;;;26.94;61.29;93309.38;5090369;28;20109;-81
2021/06/18 09:17:14;;;;;;;;;;;;;;;26.48;64.90;93321.25;5090851;28;20055;-81
2021/06/18 09:19:44;;;;;;;2.78;2.00;;;;;;;26.73;66.70;93317.09;5090613;28;19924;-81
2021/06/18 09:22:12;;;;;;;2.90;1.25;;;;;;;26.81;63.54;93310.28;5088212;28;20050;-81
2021/06/18 09:24:42;;;;;;;2.42;1.30;;;;;;;27.01;64.69;93308.91;5087765;28;20051;-80
2021/06/18 09:27:12;;;;;;;2.38;1.58;;;;;;;27.26;62.69;93317.09;5089387;28;20123;-81
2021/06/18 09:29:41;;;;;;;3.58;1.45;;;;;;;27.24;61.94;93300.03;5090228;28;20052;-81
2021/06/18 09:32:10;;;;;;;2.40;1.10;;;;;;;27.08;62.07;93305.81;5090469;28;20058;-81
2021/06/18 09:34:45;;;;;;;1.88;0.98;;;;;;;27.04;60.76;93295.09;5090187;28;20048;-81
2021/06/18 09:37:23;;;;;;;2.58;1.52;;;;;;;27.19;60.91;93306.25;5089459;28;20048;-81
2021/06/18 09:40:04;;;;;;;2.92;1.15;;;;;;;27.56;60.47;93304.03;5090299;28;20472;-81
2021/06/18 09:42:32;;;;;;;2.20;1.42;;;;;;;27.17;58.00;93296.03;5089844;28;20138;-81
2021/06/18 09:45:09;;;;;;;3.63;1.27;;;;;;;26.85;59.69;93298.03;5090146;28;20538;-81
2021/06/18 09:47:36;;;;;;;2.08;1.45;;;;;;;27.23;60.44;93294.00;5089920;28;20511;-81
2021/06/18 09:50:04;;;;;;;2.33;1.33;;;;;;;27.24;58.90;93289.50;5090002;28;20101;-81
2021/06/18 09:52:33;;;;;;;2.22;1.20;;;;;;;26.89;59.66;93290.28;5089650;28;20048;-81
2021/06/18 09:54:59;;;;;;;1.25;0.68;;;;;;;26.47;59.43;93298.63;5089604;28;20079;-81
2021/06/18 09:57:39;;;;;;;3.28;1.23;;;;;;;26.28;57.87;93284.66;5090029;28;20044;-81
2021/06/18 10:00:08;;;;;;;1.80;1.00;;;;;;;25.80;59.31;93286.19;5090003;28;20151;-81
2021/06/18 10:02:40;;;;;;;2.00;1.05;;;;;;;25.24;59.94;93291.75;5090155;28;20060;-82
2021/06/18 10:05:10;;;;;;;1.40;0.70;;;;;;;24.90;59.76;93290.47;5089884;28;20047;-82
2021/06/18 10:07:37;;;;;;;1.42;0.70;;;;;;;24.22;61.76;93281.34;5089894;28;20392;-81
2021/06/18 10:10:07;;;;;;;1.35;0.60;;;;;;;24.66;62.78;93283.56;5089999;28;20051;-81
2021/06/18 10:12:34;;;;;;;0.98;0.50;;;;;;;24.65;59.93;93274.94;5089736;28;20059;-81
2021/06/18 10:15:06;;;;;;;1.42;1.08;;;;;;;23.99;62.52;93278.63;5089732;28;20048;-82
2021/06/18 10:17:34;;;;;;;1.60;0.80;;;;;;;24.39;62.24;93277.34;5089888;28;20063;-81
2021/06/18 10:20:03;;;;;;;2.25;0.73;;;;;;;24.16;61.00;93279.88;5089468;28;20419;-82
2021/06/18 10:22:32;;;;;;;1.80;0.98;;;;;;;24.55;60.19;93286.44;5088962;28;20044;-82
2021/06/18 10:25:08;;;;;;;1.40;0.80;;;;;;;24.09;62.71;93248.81;5089293;28;20453;-81
2021/06/18 10:27:41;;;;;;;2.22;0.70;;;;;;;24.55;60.42;93260.19;5088987;28;20052;-81
2021/06/18 10:30:27;;;;;;;1.65;0.90;;;;;;;24.61;59.80;93267.94;5088912;28;20393;-81
2021/06/18 10:32:55;;;;;;;0.70;0.50;;;;;;;24.77;61.59;93271.78;5089005;28;20491;-81
2021/06/18 10:35:46;;;;;;;1.83;0.90;;;;;;;24.40;59.60;93263.91;5082771;28;20044;-81
2021/06/18 10:38:25;;;;;;;1.50;0.80;;;;;;;24.62;61.20;93272.88;5085102;28;20503;-81
2021/06/18 10:40:53;;;;;;;1.67;0.90;;;;;;;25.00;60.95;93269.22;5089111;28;20044;-81
2021/06/18 10:43:20;;;;;;;3.03;1.02;;;;;;;25.47;59.41;93262.81;5088741;28;20089;-81
2021/06/18 10:46:12;;;;;;;1.17;0.63;;;;;;;25.22;60.74;93265.78;5089089;28;20044;-80
2021/06/18 10:49:05;;;;;;;1.60;0.77;;;;;;;24.72;58.87;93263.25;5091705;28;20047;-82
2021/06/18 10:51:38;;;;;;;2.47;1.08;;;;;;;24.81;59.61;93266.72;5092733;28;20484;-82
2021/06/18 10:54:08;;;;;;;1.35;0.63;;;;;;;24.97;58.21;93263.75;5073788;28;20137;-82
2021/06/18 10:57:14;;;;;;;1.25;0.68;;;;;;;25.24;59.09;93256.81;5072608;28;20053;-82
2021/06/18 10:59:44;;;;;;;1.63;0.50;;;;;;;24.84;58.07;93247.75;5009922;28;20049;-82
2021/06/18 11:02:35;;;;;;;1.67;0.88;;;;;;;25.18;59.87;93258.78;5010161;28;20046;-81
2021/06/18 11:05:19;;;;;;;1.83;0.85;;;;;;;25.01;61.94;93254.19;5051456;28;20049;-82
2021/06/18 11:07:46;;;;;;;1.60;0.80;;;;;;;24.76;61.06;93251.84;5069380;28;20052;-82
2021/06/18 11:10:16;;;;;;;2.03;1.17;;;;;;;25.05;62.88;93266.44;5072335;28;20458;-82
2021/06/18 11:12:45;;;;;;;2.33;1.30;;;;;;;24.68;61.98;93257.81;5071874;28;20083;-81
2021/06/18 11:15:41;;;;;;;1.58;0.90;;;;;;;24.55;63.96;93249.69;5071885;28;20053;-82
2021/06/18 11:18:18;;;;;;;1.88;1.02;;;;;;;23.87;66.42;93252.06;5072070;28;20057;-82
2021/06/18 11:20:56;;;;;;;1.70;1.10;;;;;;;24.05;66.78;93254.88;5071902;28;20094;-82
2021/06/18 11:23:26;;;;;;;8.40;0.90;;;;;;;23.80;65.17;93246.47;5072320;28;20412;-81
2021/06/18 11:25:58;;;;;;;2.22;0.90;;;;;;;23.65;66.67;93261.41;5072448;28;20060;-81
2021/06/18 11:28:34;;;;;;;1.85;1.00;;;;;;;23.52;65.76;93249.84;5072225;28;20052;-81
2021/06/18 11:31:05;;;;;;;2.55;1.20;;;;;;;23.61;68.14;93250.72;5092075;28;20044;-81
2021/06/18 11:33:56;;;;;;;2.28;1.17;;;;;;;23.71;65.25;93239.28;5092158;28;20048;-81
2021/06/18 11:36:48;;;;;;;1.83;1.00;;;;;;;24.21;67.54;93239.66;5091810;28;20086;-81
2021/06/18 11:39:22;;;;;;;2.03;0.95;;;;;;;24.44;66.46;93244.94;5091704;28;20106;-81
2021/06/18 11:41:58;;;;;;;1.73;1.08;;;;;;;23.94;66.75;93234.13;5092009;28;20059;-82
2021/06/18 11:44:25;;;;;;;2.20;0.98;;;;;;;23.58;65.98;93247.91;5091706;28;20048;-81
2021/06/18 11:46:55;;;;;;;1.45;0.60;;;;;;;23.21;64.51;93239.88;5092049;28;20049;-82
2021/06/18 11:49:30;;;;;;;1.90;0.90;;;;;;;23.09;65.92;93242.94;5091396;28;20059;-81
2021/06/18 11:52:06;;;;;;;1.67;0.65;;;;;;;23.07;65.92;93239.84;5091264;28;20048;-81
2021/06/18 11:54:34;;;;;;;1.92;1.25;;;;;;;22.96;67.51;93253.09;5091636;28;20052;-81
2021/06/18 11:57:16;;;;;;;1.75;0.90;;;;;;;23.01;67.83;93244.38;5091280;28;20101;-80
2021/06/18 11:59:51;;;;;;;1.38;0.77;;;;;;;22.94;65.83;93236.91;5090693;28;20384;-82
2021/06/18 12:02:21;;;;;;;1.85;0.90;;;;;;;23.03;68.38;93241.47;5091524;28;20361;-81
2021/06/18 12:05:05;;;;;;;2.00;1.08;;;;;;;22.86;67.17;93236.78;5090789;28;20051;-81
2021/06/18 12:07:33;;;;;;;2.33;0.90;;;;;;;22.79;68.74;93244.97;5091085;28;20048;-81
2021/06/18 12:10:01;;;;;;;1.60;0.90;;;;;;;22.75;69.03;93236.94;5091250;28;20048;-81
2021/06/18 12:12:28;;;;;;;1.77;1.17;;;;;;;22.93;68.67;93248.44;5091421;28;20044;-82
2021/06/18 12:14:57;;;;;;;4.70;1.88;;;;;;;23.04;67.85;93241.19;5084674;28;20070;-81
2021/06/18 12:17:24;;;;;;;2.28;1.30;;;;;;;23.23;68.41;93238.50;5070787;28;20049;-82
2021/06/18 12:19:53;;;;;;;1.98;1.00;;;;;;;23.16;67.20;93234.72;5071082;28;20405;-81
2021/06/18 12:22:22;;;;;;;2.63;0.98;;;;;;;22.96;65.30;93240.00;5070649;28;20049;-81
2021/06/18 12:24:51;;;;;;;1.98;1.05;;;;;;;22.79;65.07;93247.59;5070949;28;20053;-80
2021/06/18 12:27:21;;;;;;;1.70;1.10;;;;;;;22.68;65.96;93244.38;5070844;28;20056;-81
2021/06/18 12:29:54;;;;;;;1.65;0.95;;;;;;;22.74;65.50;93245.06;5082835;28;20124;-80
2021/06/18 12:32:22;;;;;;;3.25;1.10;;;;;;;22.80;66.72;93236.84;5090639;28;20070;-81
2021/06/18 12:34:51;;;;;;;1.92;1.15;;;;;;;22.77;69.84;93239.25;5089478;28;20496;-81
2021/06/18 12:37:22;;;;;;;1.88;1.08;;;;;;;22.64;68.31;93238.91;5090278;28;20505;-81
2021/06/18 12:39:55;;;;;;;1.30;0.70;;;;;;;22.39;65.71;93238.19;5090750;28;20063;-79
2021/06/18 12:42:28;;;;;;;1.83;0.70;;;;;;;22.29;65.87;93233.88;5090186;28;20378;-81
2021/06/18 12:45:12;;;;;;;1.60;0.85;;;;;;;22.34;65.01;93248.72;5090308;28;20058;-80
2021/06/18 12:47:41;;;;;;;2.53;1.00;;;;;;;22.03;65.39;93249.09;5089026;28;20062;-81
2021/06/18 12:50:25;;;;;;;2.50;1.10;;;;;;;21.81;67.68;93244.41;5090524;28;20055;-80
2021/06/18 12:52:56;;;;;;;4.30;2.27;;;;;;;21.87;69.79;93245.91;5090634;28;20051;-81
2021/06/18 12:55:29;;;;;;;6.05;2.72;;;;;;;21.97;71.14;93231.91;5090476;28;20288;-81
2021/06/18 12:58:04;;;;;;;2.60;1.20;;;;;;;21.68;69.39;93241.38;5090170;28;20055;-80
2021/06/18 13:00:32;;;;;;;2.97;1.52;;;;;;;21.74;70.02;93242.91;5090203;28;20048;-80
2021/06/18 13:02:59;;;;;;;2.90;1.23;;;;;;;21.79;70.01;93236.84;5089728;28;20044;-80
2021/06/18 13:05:27;;;;;;;3.25;1.50;;;;;;;21.99;70.16;93237.66;5089092;28;20526;-80
2021/06/18 13:07:55;;;;;;;17.30;8.07;;;;;;;21.93;70.13;93239.56;5089995;28;20055;-80
2021/06/18 13:10:22;;;;;;;3.75;2.08;;;;;;;22.12;72.05;93242.19;5089925;28;20059;-81
2021/06/18 13:12:56;;;;;;;2.13;1.00;;;;;;;21.99;72.31;93241.03;5090050;28;20437;-80